PILOTS ONLINE: 411    ATC ONLINE: 58

NFFN

Nadi International Airport

Location

IATA NAN
City Nadi
Country  Fiji
Latitude 17° 45' 19" S
Longitude 177° 26' 34" E
Elevation 59 ft
Type Medium Airport

Map

Weather

METAR
2014/09/02 21:00
NFFN 022100Z 05003KT 9999 FEW030 SCT120 27/21 Q1014 NOSIG
TAF
2014/09/02 18:33
TAF NFFN 021625Z 0218/0318 VRB03KT 9999 FEW030 SCT100 
      BECMG 0221/0223 29012KT 
      BECMG 0304/0306 VRB03KT

Runways

02/20 10739 ft / 150 ft
09/27 7007 ft / 150 ft

Outbound flights

Callsign Flying to Pilot ATD/STD ETA Aircraft
FDX5114  NTAA - Papeete
French Polynesia
Rob Gow
1290070
17:21 21:07 ZZZZ

Inbound flights

Callsign Flying from Pilot ATD ETA Aircraft